Waskatenau, Canada
Current Conditions -  °F | °C
As of 2:00 PM on Friday 31 Oct 2014 (Local Time) from CYED Reporting Station
Broken Clouds Broken Clouds  
Wind Chill: 41°   Ceiling: 1100
Heat Index: 41°   Visibility: 9mi
Dew Point: 36°   Wind: 3mph
Humidity: 81%   Direction: 350°N
Pressure: 29.6"   Gusts: NA
Location:  54.09°N, 112.79°W
Report Text: CYED 312000Z AUTO 35003KT 9SM BKN011 BKN035 05/02 A2960 RMKSLP044
Loading
Personal Weather Stations






























Interactive Weather Map
Tropical Storm Tracking
New forecast layout! Learn more

10-Day Weather Forecast

Advertisements
Track Severe Weather on mobile